Time;durP1;ratioP1;P1;durP2;ratioP2;P2;SDS_P1;SDS_P2;PMS_P1;PMS_P2;Temp;Humidity;BMP_temperature;BMP_pressure;BME280_temperature;BME280_humidity;BME280_pressure;Samples;Min_cycle;Max_cycle;Signal;HPM_P1;HPM_P2
2022/04/01 00:01:28;;;;;;;1.08;0.98;;;16.40;52.30;;;;;;5132823;27;20169;-75
2022/04/01 00:03:54;;;;;;;1.00;1.00;;;16.40;52.20;;;;;;5132299;27;20251;-76
2022/04/01 00:06:19;;;;;;;1.48;1.38;;;16.40;52.20;;;;;;5132686;27;20172;-75
2022/04/01 00:08:44;;;;;;;1.25;0.90;;;16.40;52.20;;;;;;5133113;27;20635;-76
2022/04/01 00:11:10;;;;;;;1.10;1.02;;;16.30;52.20;;;;;;5132195;27;20203;-75
2022/04/01 00:13:35;;;;;;;1.15;1.08;;;16.30;52.20;;;;;;5133241;27;20164;-76
2022/04/01 00:16:01;;;;;;;1.35;1.10;;;16.30;52.20;;;;;;5132843;27;20180;-75
2022/04/01 00:18:27;;;;;;;1.88;1.25;;;16.30;52.20;;;;;;5130841;27;20553;-76
2022/04/01 00:20:52;;;;;;;1.23;1.13;;;16.30;52.30;;;;;;5133026;27;20187;-74
2022/04/01 00:23:18;;;;;;;1.27;1.17;;;16.30;52.20;;;;;;5132527;27;20173;-76
2022/04/01 00:25:43;;;;;;;2.10;1.20;;;16.30;52.90;;;;;;5132158;28;20172;-76
2022/04/01 00:28:10;;;;;;;1.63;0.93;;;16.30;52.30;;;;;;5132471;28;20191;-76
2022/04/01 00:30:38;;;;;;;1.40;1.30;;;16.20;52.20;;;;;;5132830;28;20184;-75
2022/04/01 00:33:05;;;;;;;1.85;1.15;;;16.20;52.20;;;;;;5131890;28;20595;-73
2022/04/01 00:35:32;;;;;;;1.23;1.17;;;16.20;52.20;;;;;;5132758;28;20283;-74
2022/04/01 00:37:57;;;;;;;1.15;1.08;;;16.20;52.20;;;;;;5132616;27;20627;-76
2022/04/01 00:40:23;;;;;;;1.20;1.10;;;16.20;52.20;;;;;;5131559;28;20307;-75
2022/04/01 00:42:48;;;;;;;1.10;1.10;;;16.20;52.20;;;;;;5132712;28;20176;-76
2022/04/01 00:45:16;;;;;;;1.02;1.02;;;16.20;52.20;;;;;;5131658;27;20191;-76
2022/04/01 00:47:41;;;;;;;1.50;1.40;;;16.10;52.10;;;;;;5132580;27;20188;-75
2022/04/01 00:50:07;;;;;;;1.10;1.10;;;16.10;52.10;;;;;;5132395;28;20206;-75
2022/04/01 00:52:33;;;;;;;1.35;1.25;;;16.10;52.20;;;;;;5131964;28;20198;-75
2022/04/01 00:55:00;;;;;;;1.52;1.20;;;16.10;52.20;;;;;;5097342;28;20169;-76
2022/04/01 00:57:25;;;;;;;1.58;1.27;;;16.10;52.10;;;;;;5097037;28;20236;-76
2022/04/01 00:59:52;;;;;;;1.20;1.02;;;16.10;52.20;;;;;;5131652;28;20580;-75
2022/04/01 01:02:18;;;;;;;1.20;1.17;;;16.10;52.20;;;;;;5131957;27;20164;-75
2022/04/01 01:04:44;;;;;;;1.30;1.20;;;16.10;52.20;;;;;;5132644;27;20185;-74
2022/04/01 01:07:09;;;;;;;1.25;1.15;;;16.00;52.10;;;;;;5131516;28;20243;-76
2022/04/01 01:09:35;;;;;;;1.20;1.10;;;16.00;52.20;;;;;;5132582;28;20567;-74
2022/04/01 01:12:01;;;;;;;1.13;1.00;;;16.00;52.20;;;;;;5114103;28;20169;-75
2022/04/01 01:14:31;;;;;;;1.20;1.10;;;16.00;52.20;;;;;;5131313;28;20192;-75
2022/04/01 01:16:57;;;;;;;0.98;0.98;;;16.00;52.10;;;;;;5132295;27;20189;-76
2022/04/01 01:19:23;;;;;;;1.02;0.90;;;16.00;52.20;;;;;;5131862;28;20216;-77
2022/04/01 01:21:50;;;;;;;1.30;1.20;;;16.00;52.10;;;;;;5131746;28;20217;-74
2022/04/01 01:24:16;;;;;;;1.27;1.15;;;16.00;52.20;;;;;;5132132;28;20189;-75
2022/04/01 01:26:44;;;;;;;1.17;1.08;;;15.90;52.10;;;;;;5132210;28;20206;-74
2022/04/01 01:29:09;;;;;;;1.00;1.00;;;15.90;52.10;;;;;;5133108;27;20263;-74
2022/04/01 01:31:35;;;;;;;1.25;1.08;;;15.90;52.10;;;;;;5117591;27;20284;-75
2022/04/01 01:34:01;;;;;;;1.23;1.13;;;15.90;52.10;;;;;;5136168;27;20164;-75
2022/04/01 01:36:28;;;;;;;1.05;1.05;;;15.90;52.10;;;;;;5135167;27;20642;-75
2022/04/01 01:38:53;;;;;;;1.17;1.08;;;15.90;52.10;;;;;;5135967;27;20677;-74
2022/04/01 01:41:20;;;;;;;1.20;1.20;;;15.90;52.10;;;;;;5135666;27;20177;-75
2022/04/01 01:43:45;;;;;;;1.52;1.27;;;15.90;52.20;;;;;;5135190;27;20173;-76
2022/04/01 01:46:11;;;;;;;1.05;1.02;;;15.80;52.10;;;;;;5135635;27;20179;-75
2022/04/01 01:48:36;;;;;;;1.30;1.20;;;15.90;52.20;;;;;;5135250;27;20487;-75
2022/04/01 01:56:31;;;;;;;1.20;1.15;;;15.80;52.10;;;;;;5134441;27;20535;-76
2022/04/01 01:58:56;;;;;;;1.25;1.17;;;15.80;52.10;;;;;;5135507;27;20212;-75
2022/04/01 02:01:22;;;;;;;1.30;1.20;;;15.80;52.10;;;;;;5135331;27;20531;-75
2022/04/01 02:03:47;;;;;;;1.20;1.20;;;15.80;52.10;;;;;;5134727;27;20259;-76
2022/04/01 02:06:14;;;;;;;1.35;1.25;;;15.70;52.10;;;;;;5135197;27;20526;-76
2022/04/01 02:08:40;;;;;;;1.20;1.15;;;15.80;52.20;;;;;;5135359;27;20639;-75
2022/04/01 02:11:07;;;;;;;1.23;1.23;;;15.70;52.00;;;;;;5134422;27;20188;-75
2022/04/01 02:13:32;;;;;;;1.60;1.30;;;15.70;52.10;;;;;;5135478;27;20513;-74
2022/04/01 02:15:58;;;;;;;1.30;1.20;;;15.70;52.10;;;;;;5135344;27;20172;-75
2022/04/01 02:18:23;;;;;;;0.90;0.90;;;15.70;52.10;;;;;;5134406;27;20168;-75
2022/04/01 02:20:50;;;;;;;1.50;1.23;;;15.70;52.10;;;;;;5136005;27;20585;-74
2022/04/01 02:23:16;;;;;;;1.30;1.20;;;15.70;52.10;;;;;;5136119;27;20611;-76
2022/04/01 02:25:42;;;;;;;0.90;0.90;;;15.70;52.10;;;;;;5134801;27;20196;-75
2022/04/01 02:28:08;;;;;;;1.00;1.00;;;15.70;52.10;;;;;;5134807;27;20191;-76
2022/04/01 02:30:34;;;;;;;1.00;1.00;;;15.70;52.10;;;;;;5135149;27;20263;-75
2022/04/01 02:32:59;;;;;;;1.05;1.05;;;15.60;52.00;;;;;;5135008;27;20165;-75
2022/04/01 02:35:25;;;;;;;1.20;1.10;;;15.70;52.10;;;;;;5134660;27;20223;-75
2022/04/01 02:37:50;;;;;;;1.05;1.05;;;15.60;52.10;;;;;;5134127;27;20271;-76
2022/04/01 02:40:16;;;;;;;1.15;1.15;;;15.60;52.00;;;;;;5133443;27;20207;-76
2022/04/01 02:42:41;;;;;;;0.98;0.98;;;15.60;52.20;;;;;;5134774;27;20188;-75
2022/04/01 02:45:07;;;;;;;1.05;1.05;;;15.60;52.80;;;;;;5133393;27;20234;-76
2022/04/01 02:47:33;;;;;;;1.17;1.17;;;15.60;52.10;;;;;;5134541;27;20619;-74
2022/04/01 02:50:00;;;;;;;1.08;1.08;;;15.60;52.10;;;;;;5134610;27;20172;-76
2022/04/01 02:52:26;;;;;;;1.23;1.20;;;15.60;52.20;;;;;;5133465;27;20176;-76
2022/04/01 02:54:52;;;;;;;1.10;1.10;;;15.60;52.10;;;;;;5134545;27;20531;-75
2022/04/01 02:57:18;;;;;;;1.20;1.20;;;15.60;52.10;;;;;;5133925;27;20659;-76
2022/04/01 02:59:44;;;;;;;1.30;1.20;;;15.50;52.10;;;;;;5132929;27;20610;-75
2022/04/01 03:02:09;;;;;;;1.10;1.10;;;15.50;52.10;;;;;;5134052;27;20219;-75
2022/04/01 03:04:35;;;;;;;1.20;1.10;;;15.50;52.10;;;;;;5134166;27;20583;-74
2022/04/01 03:07:01;;;;;;;1.10;1.05;;;15.50;52.20;;;;;;5133498;27;20218;-76
2022/04/01 03:09:27;;;;;;;0.93;0.93;;;15.50;52.20;;;;;;5133865;27;20231;-76
2022/04/01 03:11:52;;;;;;;1.35;1.25;;;15.50;52.10;;;;;;5134034;27;20176;-74
2022/04/01 03:14:18;;;;;;;1.00;1.00;;;15.50;52.10;;;;;;5133010;27;20670;-75
2022/04/01 03:16:43;;;;;;;1.45;1.30;;;15.50;52.20;;;;;;5134143;27;20180;-74
2022/04/01 03:19:10;;;;;;;1.17;1.17;;;15.50;52.20;;;;;;5133611;27;20203;-76
2022/04/01 03:21:36;;;;;;;1.38;1.20;;;15.50;52.10;;;;;;5133154;27;20165;-75
2022/04/01 03:24:02;;;;;;;0.80;0.80;;;15.40;52.10;;;;;;5133736;27;20195;-74
2022/04/01 03:26:28;;;;;;;1.45;1.35;;;15.40;52.70;;;;;;5133661;27;20631;-75
2022/04/01 03:28:54;;;;;;;1.02;1.02;;;15.40;52.10;;;;;;5132052;27;20631;-74
2022/04/01 03:31:20;;;;;;;2.00;1.30;;;15.40;52.10;;;;;;5133515;27;20255;-75
2022/04/01 03:33:46;;;;;;;1.60;1.40;;;15.40;52.10;;;;;;5133623;27;20268;-76
2022/04/01 03:36:11;;;;;;;1.67;1.20;;;15.40;52.10;;;;;;5132553;27;20251;-75
2022/04/01 03:38:38;;;;;;;1.10;1.10;;;15.40;52.10;;;;;;5133406;27;20646;-75
2022/04/01 03:41:05;;;;;;;1.77;0.88;;;15.30;52.10;;;;;;5132980;27;20183;-76
2022/04/01 03:43:30;;;;;;;1.02;1.02;;;15.30;52.10;;;;;;5133372;27;20263;-76
2022/04/01 03:45:56;;;;;;;1.00;1.00;;;15.30;52.10;;;;;;5133519;27;20275;-76
2022/04/01 03:48:45;;;;;;;1.02;1.02;;;15.30;52.20;;;;;;5096991;27;20198;-75
2022/04/01 03:51:13;;;;;;;1.13;1.13;;;15.30;52.10;;;;;;5132654;27;20268;-76
2022/04/01 03:53:39;;;;;;;1.40;1.30;;;15.30;52.20;;;;;;5114191;27;20201;-74
2022/04/01 03:56:06;;;;;;;1.23;1.23;;;15.30;52.10;;;;;;5097309;27;20179;-75
2022/04/01 03:58:33;;;;;;;1.15;1.15;;;15.30;52.10;;;;;;5098118;27;20305;-76
2022/04/01 04:01:00;;;;;;;1.40;1.30;;;15.30;52.10;;;;;;5133191;27;20223;-77
2022/04/01 04:03:25;;;;;;;1.10;1.10;;;15.30;52.20;;;;;;5132027;27;20184;-76
2022/04/01 04:05:51;;;;;;;1.10;1.10;;;15.30;52.10;;;;;;5133343;27;20176;-76
2022/04/01 04:08:20;;;;;;;0.93;0.93;;;15.30;52.10;;;;;;5114346;27;20591;-75
2022/04/01 04:10:53;;;;;;;1.40;1.30;;;15.30;52.20;;;;;;5132433;27;20177;-74
2022/04/01 04:13:19;;;;;;;1.02;1.02;;;15.20;52.10;;;;;;5132800;27;20179;-74
2022/04/01 04:15:51;;;;;;;1.20;1.17;;;15.20;52.10;;;;;;5132864;27;20183;-75
2022/04/01 04:18:18;;;;;;;1.10;1.10;;;15.20;52.10;;;;;;5131792;27;20184;-74
2022/04/01 04:21:25;;;;;;;1.27;1.17;;;15.20;52.10;;;;;;5132866;27;20199;-75
2022/04/01 04:23:54;;;;;;;1.33;1.23;;;15.20;52.10;;;;;;5032030;28;20175;-76
2022/04/01 04:26:35;;;;;;;1.55;1.00;;;15.20;52.20;;;;;;5032923;28;20183;-74
2022/04/01 04:29:09;;;;;;;1.02;1.00;;;15.20;52.20;;;;;;5100583;27;20188;-75
2022/04/01 04:31:35;;;;;;;1.40;1.30;;;15.20;52.20;;;;;;5132409;27;20191;-76
2022/04/01 04:34:02;;;;;;;1.00;1.00;;;15.10;52.20;;;;;;5132848;28;20497;-75
2022/04/01 04:36:38;;;;;;;1.10;1.00;;;15.10;52.10;;;;;;5114150;28;20694;-75
2022/04/01 04:39:15;;;;;;;1.30;1.20;;;15.20;52.20;;;;;;5114661;28;20290;-75
2022/04/01 04:41:41;;;;;;;1.20;1.10;;;15.10;52.10;;;;;;5132638;28;20662;-75
2022/04/01 04:44:07;;;;;;;1.60;1.50;;;15.10;52.10;;;;;;5096984;28;20176;-75
2022/04/01 04:46:34;;;;;;;1.15;1.10;;;15.10;52.20;;;;;;5113649;28;20269;-75
2022/04/01 04:48:59;;;;;;;1.10;1.10;;;15.10;52.20;;;;;;5114425;28;20180;-75
2022/04/01 04:51:25;;;;;;;1.02;1.00;;;15.10;52.10;;;;;;5131553;28;20181;-76
2022/04/01 04:53:51;;;;;;;0.82;0.82;;;15.10;52.10;;;;;;5132657;28;20169;-76
2022/04/01 04:56:20;;;;;;;1.20;1.20;;;15.10;52.10;;;;;;5132008;27;20183;-75
2022/04/01 04:58:45;;;;;;;1.13;1.00;;;15.00;52.10;;;;;;5113392;28;20208;-74
2022/04/01 05:01:52;;;;;;;1.05;0.95;;;15.10;52.20;;;;;;5132388;28;20576;-76
2022/04/01 05:04:25;;;;;;;1.15;1.10;;;15.10;52.10;;;;;;5051073;28;20270;-76
2022/04/01 05:07:13;;;;;;;0.90;0.90;;;15.20;51.90;;;;;;5108479;27;20245;-75
2022/04/01 05:09:44;;;;;;;0.80;0.80;;;15.30;51.80;;;;;;5120948;27;20172;-74
2022/04/01 05:12:20;;;;;;;1.05;0.98;;;15.40;51.60;;;;;;5101646;27;20204;-75
2022/04/01 05:15:05;;;;;;;0.88;0.88;;;15.70;51.30;;;;;;5117502;27;20561;-73
2022/04/01 05:17:36;;;;;;;0.70;0.70;;;15.90;51.10;;;;;;5136388;27;20507;-75
2022/04/01 05:20:04;;;;;;;0.85;0.85;;;16.20;50.80;;;;;;5135782;27;20219;-75
2022/04/01 05:22:38;;;;;;;0.93;0.70;;;16.50;50.20;;;;;;5136281;27;20227;-74
2022/04/01 05:25:04;;;;;;;0.80;0.80;;;16.80;49.50;;;;;;5118209;27;20169;-75
2022/04/01 05:27:30;;;;;;;0.80;0.80;;;17.00;49.10;;;;;;5135344;27;20214;-76
2022/04/01 05:30:04;;;;;;;0.80;0.80;;;17.20;48.70;;;;;;5136524;27;20172;-74
2022/04/01 05:32:31;;;;;;;1.33;0.90;;;17.40;48.40;;;;;;5135821;27;20307;-74
2022/04/01 05:34:57;;;;;;;0.88;0.88;;;17.40;48.40;;;;;;5117306;27;20176;-73
2022/04/01 05:37:25;;;;;;;0.50;0.50;;;17.50;48.20;;;;;;5100474;27;20172;-75
2022/04/01 05:39:51;;;;;;;0.70;0.70;;;17.40;48.30;;;;;;5118979;27;20269;-75
2022/04/01 05:42:18;;;;;;;0.80;0.80;;;17.30;48.40;;;;;;5117225;27;20168;-75
2022/04/01 05:44:44;;;;;;;0.95;0.73;;;17.20;48.50;;;;;;5117664;27;20519;-74
2022/04/01 05:47:10;;;;;;;1.00;0.85;;;17.20;48.70;;;;;;5135554;27;20181;-75
2022/04/01 05:49:43;;;;;;;0.85;0.85;;;17.20;48.70;;;;;;5135136;27;20276;-74
2022/04/01 05:52:09;;;;;;;0.70;0.70;;;17.30;48.70;;;;;;5135425;27;20707;-75
2022/04/01 05:54:35;;;;;;;0.77;0.77;;;17.20;48.60;;;;;;5135511;27;20683;-74
2022/04/01 05:57:00;;;;;;;1.08;0.85;;;17.20;48.70;;;;;;5135274;27;20229;-75
2022/04/01 05:59:26;;;;;;;0.82;0.82;;;17.20;48.70;;;;;;5101004;27;20235;-76
2022/04/01 06:02:34;;;;;;;0.68;0.68;;;17.10;48.80;;;;;;5134903;27;20519;-73
2022/04/01 06:05:18;;;;;;;0.68;0.68;;;17.00;48.90;;;;;;5096807;27;20267;-75
2022/04/01 06:08:33;;;;;;;0.70;0.70;;;17.00;49.10;;;;;;5135612;27;20176;-76
2022/04/01 06:11:02;;;;;;;0.90;0.70;;;17.00;49.00;;;;;;5116854;27;20168;-73
2022/04/01 06:13:49;;;;;;;0.80;0.80;;;17.10;48.90;;;;;;5117282;27;20183;-75
2022/04/01 06:16:20;;;;;;;1.38;1.27;;;17.30;48.80;;;;;;5133229;27;20229;-75
2022/04/01 06:19:44;;;;;;;0.63;0.63;;;17.30;48.60;;;;;;5135176;27;20218;-73
2022/04/01 06:22:17;;;;;;;0.63;0.60;;;17.40;48.30;;;;;;5067583;27;20177;-75
2022/04/01 06:25:02;;;;;;;0.70;0.70;;;17.60;48.20;;;;;;5134437;27;20663;-74
2022/04/01 06:27:42;;;;;;;0.80;0.80;;;17.70;48.00;;;;;;5134794;27;20318;-75
2022/04/01 06:30:09;;;;;;;0.70;0.70;;;17.90;47.90;;;;;;5133944;27;20603;-73
2022/04/01 06:33:05;;;;;;;0.60;0.60;;;18.00;47.70;;;;;;5135269;27;20175;-73
2022/04/01 06:35:38;;;;;;;0.77;0.70;;;18.10;47.50;;;;;;5134859;27;20177;-70
2022/04/01 06:38:08;;;;;;;1.67;0.73;;;18.20;47.30;;;;;;5134372;27;20209;-69
2022/04/01 06:40:41;;;;;;;2.25;0.98;;;18.20;47.20;;;;;;5134699;27;20243;-71
2022/04/01 06:43:06;;;;;;;1.38;1.08;;;18.30;47.10;;;;;;5116434;27;20183;-71
2022/04/01 06:45:32;;;;;;;2.28;1.33;;;18.20;47.10;;;;;;5115353;27;20521;-72
2022/04/01 06:47:57;;;;;;;1.10;1.00;;;18.20;47.10;;;;;;5134515;27;20599;-73
2022/04/01 06:50:23;;;;;;;2.88;1.08;;;18.20;47.20;;;;;;5134357;27;20267;-72
2022/04/01 06:52:49;;;;;;;2.45;1.05;;;18.30;47.10;;;;;;5115539;27;20168;-70
2022/04/01 06:55:14;;;;;;;2.65;1.17;;;18.30;47.00;;;;;;5115861;27;20594;-70
2022/04/01 06:57:40;;;;;;;9.50;1.30;;;18.30;47.00;;;;;;5134293;27;20220;-71
2022/04/01 07:00:08;;;;;;;1.50;0.95;;;18.30;47.10;;;;;;5133385;27;20212;-70
2022/04/01 07:02:35;;;;;;;2.25;1.13;;;18.30;47.10;;;;;;5134212;27;20623;-71
2022/04/01 07:05:01;;;;;;;2.20;1.00;;;18.30;47.10;;;;;;5133397;27;20212;-72
2022/04/01 07:07:26;;;;;;;2.13;1.17;;;18.40;47.20;;;;;;5134128;27;20219;-70
2022/04/01 07:09:52;;;;;;;1.58;1.00;;;18.40;47.30;;;;;;5115890;27;20642;-74
2022/04/01 07:12:17;;;;;;;2.85;1.25;;;18.40;47.20;;;;;;5114794;27;20247;-74
2022/04/01 07:14:43;;;;;;;6.50;1.00;;;18.50;47.20;;;;;;5134115;27;20538;-74
2022/04/01 07:17:08;;;;;;;3.97;1.10;;;18.60;47.00;;;;;;5133676;27;20172;-73
2022/04/01 07:19:34;;;;;;;3.67;1.17;;;18.70;47.00;;;;;;5133547;27;20253;-72
2022/04/01 07:21:59;;;;;;;3.38;1.33;;;18.70;46.90;;;;;;5133866;27;20602;-73
2022/04/01 07:24:26;;;;;;;1.70;1.00;;;18.70;46.90;;;;;;5133630;27;20235;-73
2022/04/01 07:26:51;;;;;;;3.35;1.23;;;18.70;46.80;;;;;;5132808;27;20190;-73
2022/04/01 07:29:17;;;;;;;2.10;1.27;;;18.70;46.60;;;;;;5133337;27;20184;-71
2022/04/01 07:34:35;;;;;;;1.23;0.90;;;18.70;46.30;;;;;;5133099;27;20219;-70
2022/04/01 07:37:01;;;;;;;1.75;1.10;;;18.70;46.20;;;;;;5115971;27;20173;-69
2022/04/01 07:39:26;;;;;;;2.67;1.42;;;18.80;46.30;;;;;;5133291;27;20622;-68
2022/04/01 07:41:52;;;;;;;3.42;1.05;;;18.80;46.30;;;;;;5133193;27;20533;-69
2022/04/01 07:44:17;;;;;;;3.78;1.15;;;18.90;46.40;;;;;;5133421;27;20176;-68
2022/04/01 07:46:43;;;;;;;6.70;1.27;;;19.00;46.30;;;;;;5133857;27;20172;-71
2022/04/01 07:49:08;;;;;;;4.63;1.00;;;19.00;46.20;;;;;;5114249;27;20168;-68
2022/04/01 07:51:35;;;;;;;2.30;1.00;;;19.20;46.30;;;;;;5114971;27;20184;-68
2022/04/01 07:54:00;;;;;;;2.85;0.80;;;19.20;46.20;;;;;;5132601;27;20180;-68
2022/04/01 07:56:30;;;;;;;2.10;0.85;;;19.20;46.30;;;;;;5131839;27;20188;-72
2022/04/01 07:58:57;;;;;;;1.98;1.08;;;19.20;46.40;;;;;;5133246;27;20216;-74
2022/04/01 08:01:22;;;;;;;2.83;0.90;;;19.30;46.40;;;;;;5132428;27;20169;-72
2022/04/01 08:03:48;;;;;;;2.05;0.80;;;19.30;46.50;;;;;;5133501;27;20232;-73
2022/04/01 08:06:14;;;;;;;2.75;1.00;;;19.30;46.40;;;;;;5132871;27;20215;-73
2022/04/01 08:08:39;;;;;;;1.92;0.82;;;19.40;46.40;;;;;;5132431;27;20264;-74
2022/04/01 08:11:06;;;;;;;2.03;0.75;;;19.40;46.50;;;;;;5133146;27;20164;-74
2022/04/01 08:13:32;;;;;;;2.17;0.80;;;19.30;46.50;;;;;;5132981;27;20188;-73
2022/04/01 08:15:58;;;;;;;2.35;0.85;;;19.30;46.60;;;;;;5132504;27;20619;-72
2022/04/01 08:18:23;;;;;;;2.45;0.90;;;19.20;46.80;;;;;;5132770;27;20179;-72
2022/04/01 08:20:49;;;;;;;1.25;0.90;;;19.10;47.10;;;;;;5133042;27;20172;-73
2022/04/01 08:23:14;;;;;;;2.97;1.10;;;19.00;47.20;;;;;;5131993;27;20168;-69
2022/04/01 08:25:40;;;;;;;1.77;1.00;;;19.00;47.30;;;;;;5132888;27;20225;-72
2022/04/01 08:28:05;;;;;;;0.95;0.77;;;18.90;47.30;;;;;;5132795;27;20528;-73
2022/04/01 08:30:32;;;;;;;2.03;0.90;;;18.80;47.00;;;;;;5132314;27;20187;-69
2022/04/01 08:32:57;;;;;;;1.88;0.90;;;18.80;47.10;;;;;;5133143;27;20179;-69
2022/04/01 08:35:23;;;;;;;1.65;0.88;;;18.90;47.30;;;;;;5132734;28;20168;-67
2022/04/01 08:37:49;;;;;;;2.10;0.93;;;18.90;47.20;;;;;;5132331;27;20176;-68
2022/04/01 08:40:15;;;;;;;3.20;1.00;;;19.00;47.30;;;;;;5136862;27;20513;-68
2022/04/01 08:42:47;;;;;;;1.30;0.80;;;19.00;47.30;;;;;;5118731;27;20631;-71
2022/04/01 08:45:12;;;;;;;1.90;0.95;;;19.10;47.20;;;;;;5136205;27;20180;-69
2022/04/01 08:47:38;;;;;;;0.93;0.65;;;19.20;47.20;;;;;;5137850;27;20221;-73
2022/04/01 08:50:04;;;;;;;2.30;0.90;;;19.20;47.10;;;;;;5137481;27;20283;-70
2022/04/01 08:52:30;;;;;;;1.60;0.88;;;19.20;47.20;;;;;;5136205;27;20172;-69
2022/04/01 08:55:01;;;;;;;1.05;0.70;;;19.20;47.20;;;;;;5136924;27;20319;-72
2022/04/01 08:57:34;;;;;;;1.65;0.90;;;19.20;47.40;;;;;;5118738;27;20234;-71
2022/04/01 09:00:00;;;;;;;1.25;0.82;;;19.10;47.50;;;;;;5136786;27;20734;-71
2022/04/01 09:02:26;;;;;;;0.77;0.75;;;19.00;47.60;;;;;;5118278;27;20498;-72
2022/04/01 09:05:06;;;;;;;2.30;0.75;;;19.00;47.80;;;;;;5135763;27;20766;-71
2022/04/01 09:07:31;;;;;;;1.08;0.70;;;19.00;47.80;;;;;;5136691;27;20179;-73
2022/04/01 09:10:05;;;;;;;1.00;0.70;;;19.00;48.00;;;;;;5136540;27;20172;-71
2022/04/01 09:12:31;;;;;;;1.63;0.63;;;19.00;48.00;;;;;;5117350;27;20195;-75
2022/04/01 09:14:57;;;;;;;1.15;0.70;;;19.00;48.00;;;;;;5136655;27;20638;-69
2022/04/01 09:17:23;;;;;;;1.50;1.00;;;19.00;47.90;;;;;;5136525;27;20209;-68
2022/04/01 09:19:49;;;;;;;2.33;0.90;;;19.00;47.40;;;;;;5135865;27;20648;-68
2022/04/01 09:22:26;;;;;;;2.30;1.27;;;18.80;47.00;;;;;;5136152;27;20172;-69
2022/04/01 09:25:14;;;;;;;1.23;0.80;;;18.70;46.80;;;;;;5136572;27;20176;-68
2022/04/01 09:27:51;;;;;;;1.38;0.68;;;18.50;46.60;;;;;;5135413;27;20346;-68
2022/04/01 09:30:17;;;;;;;1.77;0.90;;;18.50;46.40;;;;;;5135952;27;20176;-68
2022/04/01 09:32:51;;;;;;;1.40;0.95;;;18.50;46.30;;;;;;5135322;27;20173;-66
2022/04/01 09:35:22;;;;;;;2.05;0.80;;;18.50;46.10;;;;;;5136032;27;20259;-68
2022/04/01 09:37:48;;;;;;;1.92;0.90;;;18.50;46.00;;;;;;5136035;27;20665;-67
2022/04/01 09:40:20;;;;;;;0.82;0.82;;;18.50;45.80;;;;;;5135145;27;20212;-68
2022/04/01 09:42:50;;;;;;;1.40;1.13;;;18.50;45.70;;;;;;5135895;27;20180;-68
2022/04/01 09:45:24;;;;;;;2.60;1.50;;;18.60;45.60;;;;;;5135342;27;20237;-68
2022/04/01 09:48:03;;;;;;;1.88;0.95;;;18.60;45.30;;;;;;5135303;27;20169;-68
2022/04/01 09:50:30;;;;;;;2.13;1.30;;;18.70;45.30;;;;;;5135626;27;20199;-69
2022/04/01 09:53:09;;;;;;;1.40;1.20;;;18.70;45.20;;;;;;5136110;27;20257;-68
2022/04/01 09:55:36;;;;;;;1.10;1.00;;;18.70;45.00;;;;;;5134823;27;20192;-68
2022/04/01 09:58:03;;;;;;;2.63;1.42;;;18.80;44.90;;;;;;5135385;27;20220;-68
2022/04/01 10:00:28;;;;;;;2.47;1.50;;;18.80;44.80;;;;;;5135044;27;20208;-69
2022/04/01 10:02:54;;;;;;;3.53;1.20;;;18.80;44.90;;;;;;5116195;27;20259;-67
2022/04/01 10:05:20;;;;;;;1.45;1.15;;;18.90;44.90;;;;;;5134703;27;20204;-67
2022/04/01 10:07:45;;;;;;;1.83;1.33;;;19.10;44.90;;;;;;5099769;27;20563;-70
2022/04/01 10:10:10;;;;;;;3.70;0.93;;;19.20;44.80;;;;;;5133926;27;20169;-70
2022/04/01 10:12:42;;;;;;;1.70;1.00;;;19.30;44.70;;;;;;5099652;27;20180;-71
2022/04/01 10:15:08;;;;;;;2.15;1.00;;;19.40;44.70;;;;;;5133785;27;20939;-73
2022/04/01 10:17:35;;;;;;;1.40;1.13;;;19.40;44.70;;;;;;5134972;27;20266;-72
2022/04/01 10:20:02;;;;;;;2.35;0.93;;;19.40;44.80;;;;;;5099672;27;20244;-69
2022/04/01 10:22:28;;;;;;;1.80;1.10;;;19.40;45.00;;;;;;5115799;27;20188;-70
2022/04/01 10:25:07;;;;;;;1.35;1.10;;;19.30;45.10;;;;;;5134848;27;20196;-67
2022/04/01 10:27:40;;;;;;;1.73;0.95;;;19.20;45.40;;;;;;5100998;27;20184;-67
2022/04/01 10:30:11;;;;;;;2.10;0.98;;;19.10;45.80;;;;;;5116430;27;20211;-68
2022/04/01 10:32:44;;;;;;;1.95;1.02;;;19.00;46.00;;;;;;5134973;27;20180;-69
2022/04/01 10:35:30;;;;;;;1.92;1.08;;;18.80;46.30;;;;;;5134369;27;20328;-71
2022/04/01 10:38:17;;;;;;;2.70;1.13;;;18.70;46.60;;;;;;5134182;27;20168;-69
2022/04/01 10:40:52;;;;;;;2.30;0.93;;;18.60;47.00;;;;;;5134760;27;20223;-69
2022/04/01 10:43:18;;;;;;;2.03;1.00;;;18.50;47.20;;;;;;5133939;27;20176;-69
2022/04/01 10:46:01;;;;;;;1.98;0.93;;;18.40;47.10;;;;;;5134629;27;20453;-72
2022/04/01 10:51:37;;;;;;;2.30;0.90;;;18.40;47.00;;;;;;5134035;27;20218;-73
2022/04/01 10:54:23;;;;;;;4.68;1.40;;;18.40;46.90;;;;;;5134440;27;20703;-71
2022/04/01 10:57:05;;;;;;;4.80;1.45;;;18.50;46.70;;;;;;5119703;27;20626;-73
2022/04/01 10:59:44;;;;;;;3.85;1.30;;;18.50;46.50;;;;;;5134348;27;20201;-73
2022/04/01 11:02:13;;;;;;;7.40;1.20;;;18.50;46.60;;;;;;5133332;27;20539;-74
2022/04/01 11:04:40;;;;;;;2.92;1.30;;;18.60;46.60;;;;;;5133460;27;20173;-73
2022/04/01 11:07:14;;;;;;;4.20;1.30;;;18.70;46.60;;;;;;5134107;27;20172;-74
2022/04/01 11:09:46;;;;;;;2.65;1.38;;;18.70;46.60;;;;;;5134136;27;20255;-74
2022/04/01 11:12:14;;;;;;;2.22;1.10;;;18.60;46.70;;;;;;5133061;27;20165;-74
2022/04/01 11:15:08;;;;;;;2.20;0.98;;;18.60;46.80;;;;;;5133817;27;20268;-75
2022/04/01 11:17:34;;;;;;;2.85;0.90;;;18.70;46.90;;;;;;5134055;27;20173;-74
2022/04/01 11:20:09;;;;;;;1.90;1.15;;;18.60;47.10;;;;;;5133149;27;20212;-71
2022/04/01 11:22:45;;;;;;;2.00;1.50;;;18.70;47.10;;;;;;5133888;27;20175;-74
2022/04/01 11:25:13;;;;;;;4.00;1.58;;;18.70;46.90;;;;;;5132768;27;20630;-73
2022/04/01 11:27:47;;;;;;;4.75;1.95;;;18.70;46.90;;;;;;5133845;27;20172;-75
2022/04/01 11:30:14;;;;;;;5.13;1.27;;;18.90;46.80;;;;;;5133612;27;20185;-70
2022/04/01 11:32:45;;;;;;;7.13;1.65;;;18.90;46.50;;;;;;5133087;27;20176;-72
2022/04/01 11:35:11;;;;;;;3.97;1.38;;;18.80;46.00;;;;;;5133129;27;20183;-73
2022/04/01 11:37:41;;;;;;;2.25;1.33;;;18.70;46.30;;;;;;5133298;27;20313;-71
2022/04/01 11:40:15;;;;;;;1.73;1.00;;;18.70;46.50;;;;;;5132815;27;20283;-71
2022/04/01 11:42:57;;;;;;;4.03;1.23;;;18.70;46.60;;;;;;5114967;27;20175;-75
2022/04/01 11:45:23;;;;;;;3.63;1.92;;;18.60;46.80;;;;;;5133086;27;20262;-73
2022/04/01 11:47:48;;;;;;;2.65;1.23;;;18.60;46.90;;;;;;5114269;27;20329;-72
2022/04/01 11:50:15;;;;;;;5.72;1.60;;;18.70;47.10;;;;;;5132826;27;20222;-72
2022/04/01 11:52:47;;;;;;;2.33;1.20;;;18.70;47.10;;;;;;5133309;27;20576;-72
2022/04/01 11:55:18;;;;;;;2.53;1.20;;;18.80;47.10;;;;;;5132334;27;20601;-71
2022/04/01 11:57:44;;;;;;;1.40;1.20;;;18.90;46.90;;;;;;5132876;27;20285;-73
2022/04/01 12:00:16;;;;;;;3.53;1.80;;;19.00;46.80;;;;;;5132763;27;20295;-71
2022/04/01 12:02:42;;;;;;;3.40;1.10;;;19.00;46.90;;;;;;5132388;27;20173;-72
2022/04/01 12:05:08;;;;;;;4.32;1.38;;;18.90;47.00;;;;;;5132937;27;20172;-71
2022/04/01 12:10:23;;;;;;;1.42;1.33;;;18.80;47.40;;;;;;5132664;27;20752;-74
2022/04/01 12:13:05;;;;;;;3.58;1.80;;;18.70;46.30;;;;;;5132312;27;20274;-71
2022/04/01 12:15:37;;;;;;;6.60;1.80;;;18.60;45.60;;;;;;5132134;27;20301;-73
2022/04/01 12:18:05;;;;;;;4.57;2.00;;;18.50;45.30;;;;;;5133145;27;20272;-73
2022/04/01 12:20:40;;;;;;;5.15;2.63;;;18.50;44.80;;;;;;5132760;27;20548;-73
2022/04/01 12:23:06;;;;;;;5.43;2.30;;;18.40;44.60;;;;;;5132014;27;20172;-69
2022/04/01 12:25:34;;;;;;;6.20;2.28;;;18.30;44.20;;;;;;5133081;27;20176;-69
2022/04/01 12:28:04;;;;;;;3.63;2.33;;;18.20;44.20;;;;;;5133307;27;20195;-72
2022/04/01 12:30:42;;;;;;;8.45;3.13;;;18.20;44.40;;;;;;5131931;27;20179;-67
2022/04/01 12:33:09;;;;;;;7.00;1.80;;;18.20;44.80;;;;;;5132267;27;20541;-69
2022/04/01 12:35:40;;;;;;;7.20;2.45;;;18.20;45.00;;;;;;5131882;28;20172;-69
2022/04/01 12:38:12;;;;;;;10.68;2.55;;;18.30;45.20;;;;;;5114147;27;20654;-73
2022/04/01 12:40:43;;;;;;;5.88;2.28;;;18.50;45.20;;;;;;5132633;28;20216;-72
2022/04/01 12:43:28;;;;;;;9.75;2.38;;;18.60;45.20;;;;;;5131599;28;20168;-72
2022/04/01 12:46:03;;;;;;;4.40;2.00;;;18.70;45.30;;;;;;5132739;28;20229;-72
2022/04/01 12:48:29;;;;;;;5.20;2.33;;;18.80;45.30;;;;;;5132152;28;20180;-71
2022/04/01 12:51:02;;;;;;;4.25;2.25;;;18.90;45.30;;;;;;5131568;27;20172;-74
2022/04/01 12:53:29;;;;;;;9.40;2.45;;;19.00;45.30;;;;;;5132259;28;20243;-70
2022/04/01 12:55:55;;;;;;;3.50;2.05;;;19.10;45.30;;;;;;5132804;28;20184;-72
2022/04/01 12:58:22;;;;;;;5.22;1.95;;;19.20;45.20;;;;;;5113129;28;20690;-73
2022/04/01 13:00:48;;;;;;;2.72;2.13;;;19.30;45.10;;;;;;5132389;28;20215;-73
2022/04/01 13:03:13;;;;;;;3.05;1.67;;;19.40;45.20;;;;;;5131000;28;20180;-71
2022/04/01 13:05:39;;;;;;;5.95;2.25;;;19.30;45.40;;;;;;5113288;28;20172;-72
2022/04/01 13:08:09;;;;;;;3.78;1.92;;;19.20;45.40;;;;;;5132046;28;20165;-73
2022/04/01 13:10:34;;;;;;;2.42;1.88;;;19.10;45.80;;;;;;5132585;28;20228;-75
2022/04/01 13:13:00;;;;;;;6.97;2.17;;;19.00;45.90;;;;;;5113815;28;20188;-75